createdAt,value
2023-02-22T00:02:34.378Z,10.05
2023-02-22T00:07:35.981Z,12.02
2023-02-22T00:12:37.580Z,7.13
2023-02-22T00:17:39.286Z,10.27
2023-02-22T00:22:48.932Z,13.48
2023-02-22T00:27:52.850Z,9.73
2023-02-22T00:32:56.708Z,8.45
2023-02-22T00:38:00.780Z,7.78
2023-02-22T00:43:04.979Z,7.78
2023-02-22T00:48:08.610Z,7.78
2023-02-22T00:53:11.426Z,9.35
2023-02-22T00:58:13.141Z,7.75
2023-02-22T01:03:17.971Z,12.10
2023-02-22T01:08:20.082Z,10.25
2023-02-22T01:13:21.767Z,9.43
2023-02-22T01:18:23.499Z,8.93
2023-02-22T01:23:25.156Z,11.77
2023-02-22T01:28:26.837Z,9.35
2023-02-22T01:33:28.709Z,10.98
2023-02-22T01:38:30.352Z,10.05
2023-02-22T01:43:33.164Z,14.65
2023-02-22T01:48:51.157Z,13.93
2023-02-22T01:54:03.596Z,12.63
2023-02-22T01:59:10.721Z,10.50
2023-02-22T02:04:20.642Z,8.32
2023-02-22T02:09:40.582Z,11.35
2023-02-22T02:14:43.999Z,9.88
2023-02-22T02:20:13.950Z,9.00
2023-02-22T02:25:41.454Z,9.82
2023-02-22T02:31:06.450Z,8.20
2023-02-22T02:36:22.785Z,9.00
2023-02-22T02:41:29.940Z,17.75
2023-02-22T02:46:48.890Z,14.07
2023-02-22T02:51:54.008Z,11.02
2023-02-22T02:56:57.809Z,11.88
2023-02-22T03:02:13.247Z,11.80
2023-02-22T03:07:28.125Z,11.38
2023-02-22T03:12:54.524Z,9.80
2023-02-22T03:18:31.110Z,11.48
2023-02-22T03:23:37.706Z,11.80
2023-02-22T03:28:43.091Z,11.20
2023-02-22T03:33:51.878Z,10.00
2023-02-22T03:38:55.746Z,14.23
2023-02-22T03:44:09.476Z,14.75
2023-02-22T03:49:25.237Z,11.70
2023-02-22T03:54:28.989Z,9.38
2023-02-22T03:59:31.877Z,12.95
2023-02-22T04:04:34.740Z,12.70
2023-02-22T04:09:37.304Z,10.32
2023-02-22T04:14:39.300Z,13.43
2023-02-22T04:19:42.122Z,11.57
2023-02-22T04:24:44.007Z,12.18
2023-02-22T04:29:45.828Z,12.35
2023-02-22T04:34:48.060Z,11.65
2023-02-22T04:39:49.860Z,12.20
2023-02-22T04:44:52.500Z,18.75
2023-02-22T04:49:54.496Z,13.05
2023-02-22T04:54:56.181Z,18.42
2023-02-22T04:59:58.050Z,16.73
2023-02-22T05:05:00.260Z,14.55
2023-02-22T05:10:02.802Z,12.38
2023-02-22T05:15:07.179Z,15.65
2023-02-22T05:20:21.791Z,12.75
2023-02-22T05:25:24.392Z,18.20
2023-02-22T05:30:30.056Z,13.27
2023-02-22T05:35:32.270Z,13.23
2023-02-22T05:40:34.241Z,16.65
2023-02-22T05:45:36.285Z,23.02
2023-02-22T05:50:37.926Z,19.65
2023-02-22T05:55:40.285Z,16.83
2023-02-22T06:00:42.111Z,17.83
2023-02-22T06:05:43.885Z,14.82
2023-02-22T06:10:45.501Z,18.15
2023-02-22T06:15:47.184Z,22.65
2023-02-22T06:20:48.800Z,14.30
2023-02-22T06:25:50.484Z,18.20
2023-02-22T06:30:52.418Z,22.02
2023-02-22T06:35:54.034Z,23.05
2023-02-22T06:40:55.746Z,18.35
2023-02-22T06:45:57.389Z,18.80
2023-02-22T06:50:59.050Z,19.23
2023-02-22T06:56:00.970Z,17.90
2023-02-22T07:01:03.914Z,17.55
2023-02-22T07:06:07.692Z,22.30
2023-02-22T07:11:09.439Z,19.90
2023-02-22T07:16:11.112Z,24.13
2023-02-22T07:21:12.816Z,19.15
2023-02-22T07:26:14.450Z,18.98
2023-02-22T07:31:16.566Z,18.05
2023-02-22T07:36:18.389Z,19.17
2023-02-22T07:41:20.289Z,15.75
2023-02-22T07:46:21.970Z,14.90
2023-02-22T07:51:23.983Z,17.20
2023-02-22T07:56:25.790Z,22.00
2023-02-22T08:01:28.493Z,17.30
2023-02-22T08:06:30.168Z,19.00
2023-02-22T08:11:31.783Z,17.20
2023-02-22T08:16:33.517Z,18.92
2023-02-22T08:21:35.645Z,15.65
2023-02-22T08:26:37.490Z,14.40
2023-02-22T08:31:39.267Z,16.13
2023-02-22T08:36:42.641Z,20.40
2023-02-22T08:41:44.289Z,17.27
2023-02-22T08:46:45.931Z,20.02
2023-02-22T08:51:47.672Z,14.68
2023-02-22T08:56:49.690Z,17.00
2023-02-22T09:01:51.732Z,14.57
2023-02-22T09:06:53.361Z,16.73
2023-02-22T09:11:54.980Z,14.57
2023-02-22T09:16:56.690Z,19.77
2023-02-22T09:22:00.152Z,16.83
2023-02-22T09:27:04.390Z,20.17
2023-02-22T09:32:06.184Z,23.48
2023-02-22T09:37:08.860Z,24.00
2023-02-22T09:42:31.455Z,19.48
2023-02-22T09:47:41.781Z,22.10
2023-02-22T09:52:54.021Z,20.27
2023-02-22T09:57:59.738Z,15.40
2023-02-22T10:03:16.454Z,17.42
2023-02-22T10:08:19.893Z,18.92
2023-02-22T10:13:39.240Z,12.45
2023-02-22T10:18:56.375Z,11.57
2023-02-22T10:24:04.533Z,12.10
2023-02-22T10:29:06.078Z,11.98
2023-02-22T10:34:21.084Z,10.27
2023-02-22T10:39:35.205Z,6.47
2023-02-22T10:44:38.573Z,4.70
2023-02-22T10:49:44.042Z,4.15
2023-02-22T10:54:48.071Z,5.05
2023-02-22T10:59:52.071Z,6.32
2023-02-22T11:04:56.543Z,12.07
2023-02-22T11:10:00.873Z,7.35
2023-02-22T11:15:18.511Z,6.45
2023-02-22T11:20:25.416Z,10.10
2023-02-22T11:25:39.415Z,9.20
2023-02-22T11:30:44.023Z,7.78
2023-02-22T11:35:58.446Z,10.55
2023-02-22T11:41:26.114Z,10.93
2023-02-22T11:46:34.952Z,8.25
2023-02-22T11:52:10.730Z,10.25
2023-02-22T11:57:18.154Z,8.65
2023-02-22T12:02:30.552Z,8.52
2023-02-22T12:08:20.024Z,7.80
2023-02-22T12:13:38.256Z,9.23
2023-02-22T12:18:53.555Z,5.97
2023-02-22T12:24:14.454Z,9.13
2023-02-22T12:29:30.443Z,7.28
2023-02-22T12:34:41.530Z,7.88
2023-02-22T12:40:08.481Z,12.57
2023-02-22T12:45:31.872Z,22.17
2023-02-22T12:50:35.573Z,20.75
2023-02-22T12:55:50.911Z,12.52
2023-02-22T13:01:14.562Z,7.70
2023-02-22T13:06:27.275Z,9.05
2023-02-22T13:11:36.271Z,9.20
2023-02-22T13:16:42.394Z,6.15
2023-02-22T13:21:55.145Z,10.23
2023-02-22T13:27:02.073Z,6.75
2023-02-22T13:32:12.094Z,11.07
2023-02-22T13:37:47.132Z,6.22
2023-02-22T13:43:03.661Z,6.38
2023-02-22T13:48:24.724Z,11.65
2023-02-22T13:53:54.450Z,5.78
2023-02-22T13:58:59.413Z,7.93
2023-02-22T14:04:19.860Z,6.30
2023-02-22T14:09:45.558Z,6.20
2023-02-22T14:15:18.789Z,7.53
2023-02-22T14:20:36.279Z,6.72
2023-02-22T14:25:42.003Z,4.43
2023-02-22T14:30:43.792Z,7.80
2023-02-22T14:35:50.084Z,9.90
2023-02-22T14:40:53.738Z,6.30
2023-02-22T14:46:00.360Z,6.32
2023-02-22T14:51:20.281Z,8.15
2023-02-22T14:56:36.288Z,7.70
2023-02-22T15:01:53.179Z,8.40
2023-02-22T15:07:08.525Z,6.90
2023-02-22T15:12:18.317Z,12.85
2023-02-22T15:17:24.653Z,5.07
2023-02-22T15:22:35.949Z,7.43
2023-02-22T15:27:38.100Z,9.27
2023-02-22T15:32:53.248Z,8.52
2023-02-22T15:38:20.236Z,5.97
2023-02-22T15:43:24.802Z,4.93
2023-02-22T15:48:27.677Z,5.38
2023-02-22T15:53:37.379Z,8.52
2023-02-22T15:58:39.554Z,7.60
2023-02-22T16:03:57.583Z,5.85
2023-02-22T16:09:06.921Z,6.40
2023-02-22T16:14:31.221Z,10.48
2023-02-22T16:19:42.033Z,10.52
2023-02-22T16:24:44.689Z,13.82
2023-02-22T16:30:23.324Z,14.73
2023-02-22T16:35:28.901Z,17.65
2023-02-22T16:40:35.053Z,17.08
2023-02-22T16:45:36.663Z,18.23
2023-02-22T16:50:38.285Z,26.65
2023-02-22T16:55:44.785Z,19.42
2023-02-22T17:00:46.405Z,24.17
2023-02-22T17:05:48.067Z,26.50
2023-02-22T17:10:51.657Z,18.75
2023-02-22T17:15:55.006Z,16.00
2023-02-22T17:20:56.775Z,16.35
2023-02-22T17:26:02.242Z,17.80
2023-02-22T17:31:04.108Z,19.35
2023-02-22T17:36:06.324Z,16.38
2023-02-22T17:41:08.027Z,17.45
2023-02-22T17:46:09.748Z,23.83
2023-02-22T17:51:12.127Z,19.50
2023-02-22T17:56:18.568Z,20.77
2023-02-22T18:01:25.315Z,17.85
2023-02-22T18:06:29.998Z,20.63
2023-02-22T18:11:32.753Z,22.30
2023-02-22T18:16:34.942Z,17.85
2023-02-22T18:21:36.594Z,31.17
2023-02-22T18:26:39.097Z,21.38
2023-02-22T18:31:40.933Z,24.50
2023-02-22T18:36:42.607Z,23.30
2023-02-22T18:41:48.816Z,23.65
2023-02-22T18:46:50.506Z,24.35
2023-02-22T18:51:52.112Z,24.30
2023-02-22T18:56:53.772Z,26.25
2023-02-22T19:01:55.417Z,28.60
2023-02-22T19:06:57.690Z,28.27
2023-02-22T19:11:59.315Z,28.45
2023-02-22T19:17:02.830Z,24.50
2023-02-22T19:22:04.447Z,28.83
2023-02-22T19:27:06.481Z,24.15
2023-02-22T19:32:12.965Z,22.27
2023-02-22T19:37:15.357Z,28.45
2023-02-22T19:42:16.985Z,27.00
2023-02-22T19:47:18.595Z,23.17
2023-02-22T19:52:20.194Z,31.38
2023-02-22T19:57:23.723Z,25.73
2023-02-22T20:02:27.568Z,26.15
2023-02-22T20:07:29.306Z,31.02
2023-02-22T20:12:31.290Z,27.65
2023-02-22T20:17:32.999Z,34.30
2023-02-22T20:22:34.680Z,33.03
2023-02-22T20:27:36.428Z,32.85
2023-02-22T20:32:38.890Z,30.23
2023-02-22T20:37:42.640Z,28.42
2023-02-22T20:42:44.661Z,29.75
2023-02-22T20:47:46.305Z,33.17
2023-02-22T20:52:48.023Z,26.63
2023-02-22T20:57:49.681Z,26.95
2023-02-22T21:02:51.571Z,27.45
2023-02-22T21:07:53.918Z,31.65
2023-02-22T21:12:56.974Z,26.10
2023-02-22T21:18:00.399Z,29.38
2023-02-22T21:23:03.030Z,34.00
2023-02-22T21:28:05.550Z,29.02
2023-02-22T21:33:07.827Z,28.35
2023-02-22T21:38:14.445Z,27.00
2023-02-22T21:43:16.749Z,27.75
2023-02-22T21:48:18.397Z,30.75
2023-02-22T21:53:20.271Z,26.38
2023-02-22T21:58:22.572Z,35.47
2023-02-22T22:03:24.560Z,35.75
2023-02-22T22:08:28.034Z,32.58
2023-02-22T22:13:29.656Z,36.00
2023-02-22T22:18:31.246Z,33.33
2023-02-22T22:23:33.281Z,32.70
2023-02-22T22:28:34.891Z,33.97
2023-02-22T22:33:37.905Z,31.70
2023-02-22T22:38:39.576Z,35.58
2023-02-22T22:43:45.997Z,27.83
2023-02-22T22:48:47.716Z,29.02
2023-02-22T22:53:50.637Z,33.92
2023-02-22T22:58:55.409Z,32.42
2023-02-22T23:04:01.796Z,37.67
2023-02-22T23:09:24.506Z,36.38
2023-02-22T23:14:31.414Z,37.10
2023-02-22T23:19:35.403Z,34.22
2023-02-22T23:24:37.338Z,43.58
2023-02-22T23:29:41.346Z,38.80
2023-02-22T23:34:42.963Z,38.50
2023-02-22T23:39:44.628Z,38.33
2023-02-22T23:44:47.742Z,34.72
2023-02-22T23:49:50.053Z,37.08
2023-02-22T23:54:53.907Z,40.67
2023-02-22T23:59:55.596Z,38.38
